sensor_id;sensor_type;location;lat;lon;timestamp;P1;durP1;ratioP1;P2;durP2;ratioP2
37847;SDS011;23688;33.130;-117.188;2023-01-05T00:01:17;3.78;;;1.00;;
37847;SDS011;23688;33.130;-117.188;2023-01-05T00:03:44;6.22;;;1.10;;
37847;SDS011;23688;33.130;-117.188;2023-01-05T00:06:12;4.22;;;1.45;;
37847;SDS011;23688;33.130;-117.188;2023-01-05T00:08:39;3.58;;;0.98;;
37847;SDS011;23688;33.130;-117.188;2023-01-05T00:11:09;3.45;;;0.50;;
37847;SDS011;23688;33.130;-117.188;2023-01-05T00:13:56;4.82;;;0.80;;
37847;SDS011;23688;33.130;-117.188;2023-01-05T00:16:41;4.53;;;0.95;;
37847;SDS011;23688;33.130;-117.188;2023-01-05T00:19:25;3.90;;;0.75;;
37847;SDS011;23688;33.130;-117.188;2023-01-05T00:22:14;4.78;;;0.80;;
37847;SDS011;23688;33.130;-117.188;2023-01-05T00:27:32;3.90;;;0.82;;
37847;SDS011;23688;33.130;-117.188;2023-01-05T00:29:59;4.00;;;0.70;;
37847;SDS011;23688;33.130;-117.188;2023-01-05T00:32:26;3.10;;;0.85;;
37847;SDS011;23688;33.130;-117.188;2023-01-05T00:34:53;3.72;;;0.60;;
37847;SDS011;23688;33.130;-117.188;2023-01-05T00:37:22;5.03;;;0.93;;
37847;SDS011;23688;33.130;-117.188;2023-01-05T00:39:50;2.00;;;0.75;;
37847;SDS011;23688;33.130;-117.188;2023-01-05T00:42:17;5.22;;;0.80;;
37847;SDS011;23688;33.130;-117.188;2023-01-05T00:44:44;3.60;;;0.70;;
37847;SDS011;23688;33.130;-117.188;2023-01-05T00:47:11;2.42;;;0.90;;
37847;SDS011;23688;33.130;-117.188;2023-01-05T00:49:37;4.18;;;1.17;;
37847;SDS011;23688;33.130;-117.188;2023-01-05T00:52:04;3.78;;;0.90;;
37847;SDS011;23688;33.130;-117.188;2023-01-05T00:54:31;2.15;;;1.27;;
37847;SDS011;23688;33.130;-117.188;2023-01-05T00:59:26;9.10;;;1.10;;
37847;SDS011;23688;33.130;-117.188;2023-01-05T01:01:52;4.45;;;1.20;;
37847;SDS011;23688;33.130;-117.188;2023-01-05T01:04:19;5.97;;;1.27;;
37847;SDS011;23688;33.130;-117.188;2023-01-05T01:06:48;5.55;;;1.05;;
37847;SDS011;23688;33.130;-117.188;2023-01-05T01:09:15;3.08;;;1.50;;
37847;SDS011;23688;33.130;-117.188;2023-01-05T01:11:41;4.07;;;0.98;;
37847;SDS011;23688;33.130;-117.188;2023-01-05T01:14:09;2.38;;;1.00;;
37847;SDS011;23688;33.130;-117.188;2023-01-05T01:16:36;2.65;;;1.08;;
37847;SDS011;23688;33.130;-117.188;2023-01-05T01:19:03;8.65;;;1.40;;
37847;SDS011;23688;33.130;-117.188;2023-01-05T01:21:29;12.75;;;1.30;;
37847;SDS011;23688;33.130;-117.188;2023-01-05T01:23:55;6.78;;;2.00;;
37847;SDS011;23688;33.130;-117.188;2023-01-05T01:26:21;3.17;;;1.20;;
37847;SDS011;23688;33.130;-117.188;2023-01-05T01:28:48;18.92;;;2.63;;
37847;SDS011;23688;33.130;-117.188;2023-01-05T01:31:14;9.57;;;1.80;;
37847;SDS011;23688;33.130;-117.188;2023-01-05T01:33:41;4.60;;;1.48;;
37847;SDS011;23688;33.130;-117.188;2023-01-05T01:36:07;7.72;;;1.85;;
37847;SDS011;23688;33.130;-117.188;2023-01-05T01:38:34;3.47;;;1.90;;
37847;SDS011;23688;33.130;-117.188;2023-01-05T01:41:00;7.32;;;2.80;;
37847;SDS011;23688;33.130;-117.188;2023-01-05T01:43:47;6.22;;;2.53;;
37847;SDS011;23688;33.130;-117.188;2023-01-05T01:46:13;11.73;;;2.28;;
37847;SDS011;23688;33.130;-117.188;2023-01-05T01:48:45;14.05;;;2.42;;
37847;SDS011;23688;33.130;-117.188;2023-01-05T01:51:39;13.93;;;3.22;;
37847;SDS011;23688;33.130;-117.188;2023-01-05T01:54:09;15.88;;;3.67;;
37847;SDS011;23688;33.130;-117.188;2023-01-05T01:56:40;12.57;;;2.10;;
37847;SDS011;23688;33.130;-117.188;2023-01-05T01:59:11;12.55;;;2.70;;
37847;SDS011;23688;33.130;-117.188;2023-01-05T02:01:39;9.20;;;3.08;;
37847;SDS011;23688;33.130;-117.188;2023-01-05T02:04:05;15.98;;;2.83;;
37847;SDS011;23688;33.130;-117.188;2023-01-05T02:06:34;14.32;;;3.65;;
37847;SDS011;23688;33.130;-117.188;2023-01-05T02:09:01;20.23;;;4.63;;
37847;SDS011;23688;33.130;-117.188;2023-01-05T02:20:12;33.53;;;5.38;;
37847;SDS011;23688;33.130;-117.188;2023-01-05T02:34:46;20.15;;;4.32;;
37847;SDS011;23688;33.130;-117.188;2023-01-05T02:40:33;27.33;;;5.63;;
37847;SDS011;23688;33.130;-117.188;2023-01-05T02:43:19;21.75;;;8.43;;
37847;SDS011;23688;33.130;-117.188;2023-01-05T02:45:51;27.50;;;7.28;;
37847;SDS011;23688;33.130;-117.188;2023-01-05T02:48:18;21.42;;;6.65;;
37847;SDS011;23688;33.130;-117.188;2023-01-05T02:51:19;30.63;;;9.98;;
37847;SDS011;23688;33.130;-117.188;2023-01-05T02:53:45;33.42;;;9.48;;
37847;SDS011;23688;33.130;-117.188;2023-01-05T02:56:24;27.00;;;9.13;;
37847;SDS011;23688;33.130;-117.188;2023-01-05T02:59:13;17.00;;;6.55;;
37847;SDS011;23688;33.130;-117.188;2023-01-05T03:01:50;26.02;;;4.80;;
37847;SDS011;23688;33.130;-117.188;2023-01-05T03:04:22;20.27;;;3.05;;
37847;SDS011;23688;33.130;-117.188;2023-01-05T03:07:01;8.18;;;2.67;;
37847;SDS011;23688;33.130;-117.188;2023-01-05T03:09:32;11.57;;;2.60;;
37847;SDS011;23688;33.130;-117.188;2023-01-05T03:15:16;11.82;;;2.30;;
37847;SDS011;23688;33.130;-117.188;2023-01-05T03:17:48;14.30;;;2.38;;
37847;SDS011;23688;33.130;-117.188;2023-01-05T03:20:36;11.55;;;2.70;;
37847;SDS011;23688;33.130;-117.188;2023-01-05T03:23:08;16.10;;;2.55;;
37847;SDS011;23688;33.130;-117.188;2023-01-05T03:25:55;8.57;;;2.63;;
37847;SDS011;23688;33.130;-117.188;2023-01-05T03:28:47;6.82;;;1.70;;
37847;SDS011;23688;33.130;-117.188;2023-01-05T03:32:01;11.65;;;2.35;;
37847;SDS011;23688;33.130;-117.188;2023-01-05T03:34:54;10.88;;;2.63;;
37847;SDS011;23688;33.130;-117.188;2023-01-05T03:37:53;14.48;;;3.22;;
37847;SDS011;23688;33.130;-117.188;2023-01-05T03:40:52;7.63;;;2.08;;
37847;SDS011;23688;33.130;-117.188;2023-01-05T03:43:21;9.20;;;2.38;;
37847;SDS011;23688;33.130;-117.188;2023-01-05T03:45:55;14.98;;;3.33;;
37847;SDS011;23688;33.130;-117.188;2023-01-05T03:48:23;12.05;;;2.63;;
37847;SDS011;23688;33.130;-117.188;2023-01-05T03:50:51;16.73;;;2.40;;
37847;SDS011;23688;33.130;-117.188;2023-01-05T03:53:18;11.77;;;3.22;;
37847;SDS011;23688;33.130;-117.188;2023-01-05T03:55:44;13.63;;;2.60;;
37847;SDS011;23688;33.130;-117.188;2023-01-05T03:58:11;14.45;;;3.20;;
37847;SDS011;23688;33.130;-117.188;2023-01-05T04:00:37;8.38;;;2.10;;
37847;SDS011;23688;33.130;-117.188;2023-01-05T04:03:03;6.40;;;2.40;;
37847;SDS011;23688;33.130;-117.188;2023-01-05T04:05:29;9.82;;;2.38;;
37847;SDS011;23688;33.130;-117.188;2023-01-05T04:07:56;9.98;;;3.20;;
37847;SDS011;23688;33.130;-117.188;2023-01-05T04:10:22;10.80;;;2.70;;
37847;SDS011;23688;33.130;-117.188;2023-01-05T04:12:48;11.25;;;2.55;;
37847;SDS011;23688;33.130;-117.188;2023-01-05T04:15:15;8.75;;;2.50;;
37847;SDS011;23688;33.130;-117.188;2023-01-05T04:17:41;12.52;;;2.33;;
37847;SDS011;23688;33.130;-117.188;2023-01-05T04:20:07;11.95;;;2.30;;
37847;SDS011;23688;33.130;-117.188;2023-01-05T04:22:34;8.30;;;2.58;;
37847;SDS011;23688;33.130;-117.188;2023-01-05T04:25:01;16.55;;;2.58;;
37847;SDS011;23688;33.130;-117.188;2023-01-05T04:27:27;10.73;;;2.55;;
37847;SDS011;23688;33.130;-117.188;2023-01-05T04:29:53;9.98;;;2.25;;
37847;SDS011;23688;33.130;-117.188;2023-01-05T04:32:20;16.58;;;2.63;;
37847;SDS011;23688;33.130;-117.188;2023-01-05T04:34:46;6.35;;;2.15;;
37847;SDS011;23688;33.130;-117.188;2023-01-05T04:37:12;7.05;;;2.25;;
37847;SDS011;23688;33.130;-117.188;2023-01-05T04:39:38;15.60;;;2.67;;
37847;SDS011;23688;33.130;-117.188;2023-01-05T04:42:05;6.88;;;1.73;;
37847;SDS011;23688;33.130;-117.188;2023-01-05T04:44:31;5.38;;;2.03;;
37847;SDS011;23688;33.130;-117.188;2023-01-05T04:46:57;9.48;;;1.88;;
37847;SDS011;23688;33.130;-117.188;2023-01-05T04:49:24;10.05;;;2.00;;
37847;SDS011;23688;33.130;-117.188;2023-01-05T04:51:50;9.82;;;1.65;;
37847;SDS011;23688;33.130;-117.188;2023-01-05T04:54:16;5.72;;;1.63;;
37847;SDS011;23688;33.130;-117.188;2023-01-05T04:56:42;7.53;;;1.85;;
37847;SDS011;23688;33.130;-117.188;2023-01-05T05:01:37;5.93;;;1.80;;
37847;SDS011;23688;33.130;-117.188;2023-01-05T05:04:06;6.10;;;1.85;;
37847;SDS011;23688;33.130;-117.188;2023-01-05T05:06:33;5.50;;;1.92;;
37847;SDS011;23688;33.130;-117.188;2023-01-05T05:08:59;6.35;;;1.80;;
37847;SDS011;23688;33.130;-117.188;2023-01-05T05:11:25;13.88;;;2.00;;
37847;SDS011;23688;33.130;-117.188;2023-01-05T05:13:51;4.88;;;1.80;;
37847;SDS011;23688;33.130;-117.188;2023-01-05T05:16:18;9.80;;;1.95;;
37847;SDS011;23688;33.130;-117.188;2023-01-05T05:18:44;8.75;;;2.00;;
37847;SDS011;23688;33.130;-117.188;2023-01-05T05:21:10;7.40;;;1.67;;
37847;SDS011;23688;33.130;-117.188;2023-01-05T05:23:37;10.52;;;2.47;;
37847;SDS011;23688;33.130;-117.188;2023-01-05T05:26:03;9.02;;;2.05;;
37847;SDS011;23688;33.130;-117.188;2023-01-05T05:28:29;9.60;;;2.42;;
37847;SDS011;23688;33.130;-117.188;2023-01-05T05:30:56;19.27;;;2.67;;
37847;SDS011;23688;33.130;-117.188;2023-01-05T05:33:22;11.02;;;2.05;;
37847;SDS011;23688;33.130;-117.188;2023-01-05T05:35:49;9.80;;;2.22;;
37847;SDS011;23688;33.130;-117.188;2023-01-05T05:38:16;15.02;;;2.35;;
37847;SDS011;23688;33.130;-117.188;2023-01-05T05:40:42;14.35;;;2.33;;
37847;SDS011;23688;33.130;-117.188;2023-01-05T05:43:08;11.27;;;2.05;;
37847;SDS011;23688;33.130;-117.188;2023-01-05T05:45:34;7.72;;;1.95;;
37847;SDS011;23688;33.130;-117.188;2023-01-05T05:48:01;9.57;;;2.33;;
37847;SDS011;23688;33.130;-117.188;2023-01-05T05:50:27;12.65;;;2.72;;
37847;SDS011;23688;33.130;-117.188;2023-01-05T05:52:54;15.55;;;3.22;;
37847;SDS011;23688;33.130;-117.188;2023-01-05T05:55:21;10.80;;;2.65;;
37847;SDS011;23688;33.130;-117.188;2023-01-05T05:57:48;11.55;;;2.55;;
37847;SDS011;23688;33.130;-117.188;2023-01-05T06:00:15;8.07;;;3.42;;
37847;SDS011;23688;33.130;-117.188;2023-01-05T06:02:42;10.38;;;2.67;;
37847;SDS011;23688;33.130;-117.188;2023-01-05T06:05:08;10.95;;;2.97;;
37847;SDS011;23688;33.130;-117.188;2023-01-05T06:07:35;6.28;;;2.40;;
37847;SDS011;23688;33.130;-117.188;2023-01-05T06:10:02;22.98;;;3.38;;
37847;SDS011;23688;33.130;-117.188;2023-01-05T06:12:29;10.23;;;2.95;;
37847;SDS011;23688;33.130;-117.188;2023-01-05T06:14:55;9.93;;;2.65;;
37847;SDS011;23688;33.130;-117.188;2023-01-05T06:17:21;14.32;;;3.15;;
37847;SDS011;23688;33.130;-117.188;2023-01-05T06:19:47;17.40;;;3.03;;
37847;SDS011;23688;33.130;-117.188;2023-01-05T06:22:14;10.90;;;3.55;;
37847;SDS011;23688;33.130;-117.188;2023-01-05T06:24:40;6.15;;;2.50;;
37847;SDS011;23688;33.130;-117.188;2023-01-05T06:27:06;6.72;;;2.53;;
37847;SDS011;23688;33.130;-117.188;2023-01-05T06:29:32;11.80;;;3.03;;
37847;SDS011;23688;33.130;-117.188;2023-01-05T06:31:59;11.55;;;3.67;;
37847;SDS011;23688;33.130;-117.188;2023-01-05T06:34:25;16.10;;;3.05;;
37847;SDS011;23688;33.130;-117.188;2023-01-05T06:36:51;8.38;;;3.38;;
37847;SDS011;23688;33.130;-117.188;2023-01-05T06:39:19;9.60;;;2.65;;
37847;SDS011;23688;33.130;-117.188;2023-01-05T06:41:46;9.85;;;2.78;;
37847;SDS011;23688;33.130;-117.188;2023-01-05T06:44:12;8.82;;;2.58;;
37847;SDS011;23688;33.130;-117.188;2023-01-05T06:46:39;7.40;;;2.67;;
37847;SDS011;23688;33.130;-117.188;2023-01-05T06:49:05;6.30;;;1.88;;
37847;SDS011;23688;33.130;-117.188;2023-01-05T06:51:31;8.32;;;1.50;;
37847;SDS011;23688;33.130;-117.188;2023-01-05T06:53:57;6.25;;;1.77;;
37847;SDS011;23688;33.130;-117.188;2023-01-05T06:56:24;6.13;;;2.03;;
37847;SDS011;23688;33.130;-117.188;2023-01-05T06:58:50;6.15;;;2.28;;
37847;SDS011;23688;33.130;-117.188;2023-01-05T07:01:17;2.90;;;1.30;;
37847;SDS011;23688;33.130;-117.188;2023-01-05T07:03:43;8.07;;;1.83;;
37847;SDS011;23688;33.130;-117.188;2023-01-05T07:06:11;5.55;;;1.85;;
37847;SDS011;23688;33.130;-117.188;2023-01-05T07:08:40;6.90;;;1.50;;
37847;SDS011;23688;33.130;-117.188;2023-01-05T07:11:07;6.97;;;1.52;;
37847;SDS011;23688;33.130;-117.188;2023-01-05T07:13:33;8.98;;;1.40;;
37847;SDS011;23688;33.130;-117.188;2023-01-05T07:15:59;4.13;;;1.10;;
37847;SDS011;23688;33.130;-117.188;2023-01-05T07:18:26;7.05;;;1.52;;
37847;SDS011;23688;33.130;-117.188;2023-01-05T07:20:52;6.30;;;1.40;;
37847;SDS011;23688;33.130;-117.188;2023-01-05T07:23:18;3.80;;;1.45;;
37847;SDS011;23688;33.130;-117.188;2023-01-05T07:25:44;2.83;;;1.50;;
37847;SDS011;23688;33.130;-117.188;2023-01-05T07:28:11;4.05;;;1.52;;
37847;SDS011;23688;33.130;-117.188;2023-01-05T07:30:39;7.40;;;1.85;;
37847;SDS011;23688;33.130;-117.188;2023-01-05T07:33:06;5.80;;;1.60;;
37847;SDS011;23688;33.130;-117.188;2023-01-05T07:35:32;9.88;;;1.80;;
37847;SDS011;23688;33.130;-117.188;2023-01-05T07:37:58;7.80;;;2.15;;
37847;SDS011;23688;33.130;-117.188;2023-01-05T07:40:25;9.85;;;1.20;;
37847;SDS011;23688;33.130;-117.188;2023-01-05T07:42:53;5.38;;;1.75;;
37847;SDS011;23688;33.130;-117.188;2023-01-05T07:45:19;7.38;;;1.80;;
37847;SDS011;23688;33.130;-117.188;2023-01-05T07:47:46;4.00;;;1.08;;
37847;SDS011;23688;33.130;-117.188;2023-01-05T07:50:12;8.82;;;1.90;;
37847;SDS011;23688;33.130;-117.188;2023-01-05T07:52:38;5.78;;;1.88;;
37847;SDS011;23688;33.130;-117.188;2023-01-05T07:55:05;6.28;;;1.70;;
37847;SDS011;23688;33.130;-117.188;2023-01-05T07:57:32;5.47;;;1.70;;
37847;SDS011;23688;33.130;-117.188;2023-01-05T07:59:58;5.72;;;1.65;;
37847;SDS011;23688;33.130;-117.188;2023-01-05T08:02:24;6.72;;;1.55;;
37847;SDS011;23688;33.130;-117.188;2023-01-05T08:04:52;6.10;;;1.63;;
37847;SDS011;23688;33.130;-117.188;2023-01-05T08:07:18;3.35;;;1.52;;
37847;SDS011;23688;33.130;-117.188;2023-01-05T08:09:44;14.95;;;2.40;;
37847;SDS011;23688;33.130;-117.188;2023-01-05T08:12:29;6.32;;;1.30;;
37847;SDS011;23688;33.130;-117.188;2023-01-05T08:14:55;5.63;;;1.70;;
37847;SDS011;23688;33.130;-117.188;2023-01-05T08:17:22;6.63;;;2.08;;
37847;SDS011;23688;33.130;-117.188;2023-01-05T08:19:48;12.05;;;2.13;;
37847;SDS011;23688;33.130;-117.188;2023-01-05T08:22:14;4.40;;;1.63;;
37847;SDS011;23688;33.130;-117.188;2023-01-05T08:24:41;8.25;;;1.70;;
37847;SDS011;23688;33.130;-117.188;2023-01-05T08:27:07;9.45;;;1.50;;
37847;SDS011;23688;33.130;-117.188;2023-01-05T08:29:33;5.90;;;1.77;;
37847;SDS011;23688;33.130;-117.188;2023-01-05T08:32:00;6.55;;;1.73;;
37847;SDS011;23688;33.130;-117.188;2023-01-05T08:34:26;7.25;;;1.77;;
37847;SDS011;23688;33.130;-117.188;2023-01-05T08:36:52;7.47;;;1.63;;
37847;SDS011;23688;33.130;-117.188;2023-01-05T08:39:18;11.38;;;2.75;;
37847;SDS011;23688;33.130;-117.188;2023-01-05T08:41:45;6.30;;;1.92;;
37847;SDS011;23688;33.130;-117.188;2023-01-05T08:44:12;7.80;;;1.77;;
37847;SDS011;23688;33.130;-117.188;2023-01-05T08:46:39;5.93;;;1.63;;
37847;SDS011;23688;33.130;-117.188;2023-01-05T08:49:06;10.88;;;2.85;;
37847;SDS011;23688;33.130;-117.188;2023-01-05T08:51:34;9.18;;;2.17;;
37847;SDS011;23688;33.130;-117.188;2023-01-05T08:54:00;10.77;;;2.10;;
37847;SDS011;23688;33.130;-117.188;2023-01-05T08:56:27;8.23;;;2.42;;
37847;SDS011;23688;33.130;-117.188;2023-01-05T08:58:53;13.55;;;2.47;;
37847;SDS011;23688;33.130;-117.188;2023-01-05T09:01:20;7.22;;;2.35;;
37847;SDS011;23688;33.130;-117.188;2023-01-05T09:03:47;8.50;;;3.22;;
37847;SDS011;23688;33.130;-117.188;2023-01-05T09:06:13;9.80;;;2.97;;
37847;SDS011;23688;33.130;-117.188;2023-01-05T09:08:40;7.35;;;2.63;;
37847;SDS011;23688;33.130;-117.188;2023-01-05T09:11:17;7.68;;;2.40;;
37847;SDS011;23688;33.130;-117.188;2023-01-05T09:13:51;11.82;;;2.72;;
37847;SDS011;23688;33.130;-117.188;2023-01-05T09:16:24;12.02;;;2.90;;
37847;SDS011;23688;33.130;-117.188;2023-01-05T09:18:53;10.95;;;2.60;;
37847;SDS011;23688;33.130;-117.188;2023-01-05T09:21:21;5.80;;;2.15;;
37847;SDS011;23688;33.130;-117.188;2023-01-05T09:23:48;8.88;;;2.53;;
37847;SDS011;23688;33.130;-117.188;2023-01-05T09:26:14;6.65;;;2.28;;
37847;SDS011;23688;33.130;-117.188;2023-01-05T09:28:41;5.55;;;2.05;;
37847;SDS011;23688;33.130;-117.188;2023-01-05T09:31:09;4.85;;;2.67;;
37847;SDS011;23688;33.130;-117.188;2023-01-05T09:33:42;12.85;;;3.63;;
37847;SDS011;23688;33.130;-117.188;2023-01-05T09:36:09;9.85;;;3.35;;
37847;SDS011;23688;33.130;-117.188;2023-01-05T09:38:36;14.77;;;2.60;;
37847;SDS011;23688;33.130;-117.188;2023-01-05T09:41:06;4.57;;;2.20;;
37847;SDS011;23688;33.130;-117.188;2023-01-05T09:43:45;9.98;;;2.42;;
37847;SDS011;23688;33.130;-117.188;2023-01-05T09:46:24;5.75;;;2.70;;
37847;SDS011;23688;33.130;-117.188;2023-01-05T09:48:56;7.88;;;2.42;;
37847;SDS011;23688;33.130;-117.188;2023-01-05T09:51:26;7.03;;;2.00;;
37847;SDS011;23688;33.130;-117.188;2023-01-05T09:53:53;13.07;;;2.80;;
37847;SDS011;23688;33.130;-117.188;2023-01-05T09:59:03;8.95;;;2.47;;
37847;SDS011;23688;33.130;-117.188;2023-01-05T10:01:33;5.97;;;2.23;;
37847;SDS011;23688;33.130;-117.188;2023-01-05T10:04:23;9.52;;;2.47;;
37847;SDS011;23688;33.130;-117.188;2023-01-05T10:06:51;15.35;;;2.35;;
37847;SDS011;23688;33.130;-117.188;2023-01-05T10:09:27;7.28;;;2.03;;
37847;SDS011;23688;33.130;-117.188;2023-01-05T10:12:13;19.90;;;2.50;;
37847;SDS011;23688;33.130;-117.188;2023-01-05T10:15:18;10.20;;;2.50;;
37847;SDS011;23688;33.130;-117.188;2023-01-05T10:17:45;10.70;;;2.40;;
37847;SDS011;23688;33.130;-117.188;2023-01-05T10:25:42;10.02;;;2.13;;
37847;SDS011;23688;33.130;-117.188;2023-01-05T10:31:06;21.58;;;2.72;;
37847;SDS011;23688;33.130;-117.188;2023-01-05T10:39:46;6.28;;;2.47;;
37847;SDS011;23688;33.130;-117.188;2023-01-05T10:42:18;10.50;;;2.92;;
37847;SDS011;23688;33.130;-117.188;2023-01-05T10:44:59;10.63;;;2.33;;
37847;SDS011;23688;33.130;-117.188;2023-01-05T10:47:31;9.02;;;3.13;;
37847;SDS011;23688;33.130;-117.188;2023-01-05T10:50:02;7.93;;;2.67;;
37847;SDS011;23688;33.130;-117.188;2023-01-05T10:52:43;8.88;;;3.10;;
37847;SDS011;23688;33.130;-117.188;2023-01-05T10:55:12;9.05;;;3.08;;
37847;SDS011;23688;33.130;-117.188;2023-01-05T10:57:42;11.98;;;3.40;;
37847;SDS011;23688;33.130;-117.188;2023-01-05T11:00:12;9.77;;;2.75;;
37847;SDS011;23688;33.130;-117.188;2023-01-05T11:02:48;6.82;;;2.53;;
37847;SDS011;23688;33.130;-117.188;2023-01-05T11:05:31;8.95;;;3.10;;
37847;SDS011;23688;33.130;-117.188;2023-01-05T11:08:01;10.90;;;2.67;;
37847;SDS011;23688;33.130;-117.188;2023-01-05T11:10:33;10.15;;;2.47;;
37847;SDS011;23688;33.130;-117.188;2023-01-05T11:13:05;7.85;;;2.78;;
37847;SDS011;23688;33.130;-117.188;2023-01-05T11:15:43;6.93;;;2.10;;
37847;SDS011;23688;33.130;-117.188;2023-01-05T11:18:23;8.02;;;2.85;;
37847;SDS011;23688;33.130;-117.188;2023-01-05T11:23:35;15.70;;;3.35;;
37847;SDS011;23688;33.130;-117.188;2023-01-05T11:31:21;10.45;;;2.65;;
37847;SDS011;23688;33.130;-117.188;2023-01-05T11:33:56;12.82;;;3.20;;
37847;SDS011;23688;33.130;-117.188;2023-01-05T11:36:23;8.98;;;3.28;;
37847;SDS011;23688;33.130;-117.188;2023-01-05T11:38:54;13.00;;;2.83;;
37847;SDS011;23688;33.130;-117.188;2023-01-05T11:41:22;13.43;;;3.72;;
37847;SDS011;23688;33.130;-117.188;2023-01-05T11:43:49;20.48;;;3.25;;
37847;SDS011;23688;33.130;-117.188;2023-01-05T11:46:18;14.63;;;3.03;;
37847;SDS011;23688;33.130;-117.188;2023-01-05T11:48:51;17.00;;;3.58;;
37847;SDS011;23688;33.130;-117.188;2023-01-05T11:51:41;12.52;;;3.92;;
37847;SDS011;23688;33.130;-117.188;2023-01-05T11:54:27;12.50;;;2.83;;
37847;SDS011;23688;33.130;-117.188;2023-01-05T11:57:10;10.52;;;2.97;;
37847;SDS011;23688;33.130;-117.188;2023-01-05T11:59:42;9.77;;;2.97;;
37847;SDS011;23688;33.130;-117.188;2023-01-05T12:05:22;9.30;;;2.58;;
37847;SDS011;23688;33.130;-117.188;2023-01-05T12:08:11;9.07;;;3.05;;
37847;SDS011;23688;33.130;-117.188;2023-01-05T12:10:44;11.27;;;2.90;;
37847;SDS011;23688;33.130;-117.188;2023-01-05T12:15:51;12.30;;;2.53;;
37847;SDS011;23688;33.130;-117.188;2023-01-05T12:18:42;9.88;;;3.00;;
37847;SDS011;23688;33.130;-117.188;2023-01-05T12:30:22;7.47;;;2.20;;
37847;SDS011;23688;33.130;-117.188;2023-01-05T12:33:19;5.05;;;2.60;;
37847;SDS011;23688;33.130;-117.188;2023-01-05T12:38:36;8.80;;;2.65;;
37847;SDS011;23688;33.130;-117.188;2023-01-05T12:41:39;5.40;;;2.10;;
37847;SDS011;23688;33.130;-117.188;2023-01-05T12:47:02;7.82;;;2.42;;
37847;SDS011;23688;33.130;-117.188;2023-01-05T12:49:50;10.40;;;2.65;;
37847;SDS011;23688;33.130;-117.188;2023-01-05T12:52:38;6.13;;;2.15;;
37847;SDS011;23688;33.130;-117.188;2023-01-05T12:55:13;9.73;;;1.95;;
37847;SDS011;23688;33.130;-117.188;2023-01-05T12:57:51;8.80;;;2.50;;
37847;SDS011;23688;33.130;-117.188;2023-01-05T13:00:24;6.32;;;2.15;;
37847;SDS011;23688;33.130;-117.188;2023-01-05T13:02:57;6.75;;;2.38;;
37847;SDS011;23688;33.130;-117.188;2023-01-05T13:05:38;8.25;;;2.50;;
37847;SDS011;23688;33.130;-117.188;2023-01-05T13:11:16;8.27;;;2.58;;
37847;SDS011;23688;33.130;-117.188;2023-01-05T13:14:04;6.65;;;2.17;;
37847;SDS011;23688;33.130;-117.188;2023-01-05T13:21:49;10.68;;;2.15;;
37847;SDS011;23688;33.130;-117.188;2023-01-05T13:24:29;9.07;;;2.33;;
37847;SDS011;23688;33.130;-117.188;2023-01-05T13:27:00;9.27;;;2.85;;
37847;SDS011;23688;33.130;-117.188;2023-01-05T13:29:29;13.13;;;3.30;;
37847;SDS011;23688;33.130;-117.188;2023-01-05T13:38:00;6.35;;;2.58;;
37847;SDS011;23688;33.130;-117.188;2023-01-05T13:54:57;9.52;;;2.85;;
37847;SDS011;23688;33.130;-117.188;2023-01-05T13:57:22;6.38;;;2.42;;
37847;SDS011;23688;33.130;-117.188;2023-01-05T13:59:55;14.18;;;3.10;;
37847;SDS011;23688;33.130;-117.188;2023-01-05T14:02:39;6.15;;;2.00;;
37847;SDS011;23688;33.130;-117.188;2023-01-05T14:08:27;5.03;;;2.20;;
37847;SDS011;23688;33.130;-117.188;2023-01-05T14:11:12;8.23;;;2.42;;
37847;SDS011;23688;33.130;-117.188;2023-01-05T14:13:47;4.47;;;1.98;;
37847;SDS011;23688;33.130;-117.188;2023-01-05T14:16:58;5.63;;;2.13;;
37847;SDS011;23688;33.130;-117.188;2023-01-05T14:24:35;7.18;;;2.65;;
37847;SDS011;23688;33.130;-117.188;2023-01-05T14:27:21;2.83;;;1.45;;
37847;SDS011;23688;33.130;-117.188;2023-01-05T14:37:49;8.77;;;1.73;;
37847;SDS011;23688;33.130;-117.188;2023-01-05T14:40:37;6.80;;;1.48;;
37847;SDS011;23688;33.130;-117.188;2023-01-05T14:43:29;3.47;;;1.90;;
37847;SDS011;23688;33.130;-117.188;2023-01-05T14:48:34;10.60;;;1.90;;
37847;SDS011;23688;33.130;-117.188;2023-01-05T14:53:51;5.63;;;1.67;;
37847;SDS011;23688;33.130;-117.188;2023-01-05T14:58:52;5.07;;;1.50;;
37847;SDS011;23688;33.130;-117.188;2023-01-05T15:12:26;6.28;;;2.17;;
37847;SDS011;23688;33.130;-117.188;2023-01-05T15:21:09;5.78;;;1.95;;
37847;SDS011;23688;33.130;-117.188;2023-01-05T15:29:45;5.05;;;2.20;;
37847;SDS011;23688;33.130;-117.188;2023-01-05T15:32:26;7.97;;;2.33;;
37847;SDS011;23688;33.130;-117.188;2023-01-05T15:37:39;8.35;;;2.92;;
37847;SDS011;23688;33.130;-117.188;2023-01-05T15:40:28;8.88;;;2.78;;
37847;SDS011;23688;33.130;-117.188;2023-01-05T15:42:56;9.27;;;2.35;;
37847;SDS011;23688;33.130;-117.188;2023-01-05T15:45:28;10.23;;;2.55;;
37847;SDS011;23688;33.130;-117.188;2023-01-05T15:48:11;7.45;;;2.58;;
37847;SDS011;23688;33.130;-117.188;2023-01-05T15:50:46;7.72;;;2.30;;
37847;SDS011;23688;33.130;-117.188;2023-01-05T15:53:34;7.93;;;2.75;;
37847;SDS011;23688;33.130;-117.188;2023-01-05T15:56:06;5.63;;;2.50;;
37847;SDS011;23688;33.130;-117.188;2023-01-05T15:58:50;10.20;;;2.58;;
37847;SDS011;23688;33.130;-117.188;2023-01-05T16:01:16;7.93;;;2.70;;
37847;SDS011;23688;33.130;-117.188;2023-01-05T16:03:44;7.43;;;3.05;;
37847;SDS011;23688;33.130;-117.188;2023-01-05T16:06:22;9.43;;;2.85;;
37847;SDS011;23688;33.130;-117.188;2023-01-05T16:08:53;8.90;;;2.80;;
37847;SDS011;23688;33.130;-117.188;2023-01-05T16:19:13;5.78;;;2.90;;
37847;SDS011;23688;33.130;-117.188;2023-01-05T16:22:02;6.72;;;2.38;;
37847;SDS011;23688;33.130;-117.188;2023-01-05T16:27:39;5.75;;;2.72;;
37847;SDS011;23688;33.130;-117.188;2023-01-05T16:43:15;9.57;;;3.15;;
37847;SDS011;23688;33.130;-117.188;2023-01-05T16:45:43;8.52;;;3.60;;
37847;SDS011;23688;33.130;-117.188;2023-01-05T16:48:41;5.70;;;2.40;;
37847;SDS011;23688;33.130;-117.188;2023-01-05T16:51:06;9.60;;;3.58;;
37847;SDS011;23688;33.130;-117.188;2023-01-05T16:53:38;6.90;;;2.65;;
37847;SDS011;23688;33.130;-117.188;2023-01-05T16:56:20;5.35;;;2.53;;
37847;SDS011;23688;33.130;-117.188;2023-01-05T16:58:59;8.02;;;3.30;;
37847;SDS011;23688;33.130;-117.188;2023-01-05T17:01:48;6.90;;;2.88;;
37847;SDS011;23688;33.130;-117.188;2023-01-05T17:04:15;4.60;;;2.10;;
37847;SDS011;23688;33.130;-117.188;2023-01-05T17:06:46;4.53;;;2.53;;
37847;SDS011;23688;33.130;-117.188;2023-01-05T17:09:47;7.85;;;2.72;;
37847;SDS011;23688;33.130;-117.188;2023-01-05T17:12:07;5.53;;;1.90;;
37847;SDS011;23688;33.130;-117.188;2023-01-05T17:14:35;5.63;;;1.90;;
37847;SDS011;23688;33.130;-117.188;2023-01-05T17:17:04;2.72;;;1.65;;
37847;SDS011;23688;33.130;-117.188;2023-01-05T17:19:30;5.05;;;1.30;;
37847;SDS011;23688;33.130;-117.188;2023-01-05T17:21:59;1.50;;;1.20;;
37847;SDS011;23688;33.130;-117.188;2023-01-05T17:24:28;4.03;;;1.65;;
37847;SDS011;23688;33.130;-117.188;2023-01-05T17:26:55;2.47;;;1.50;;
37847;SDS011;23688;33.130;-117.188;2023-01-05T17:29:26;2.50;;;1.67;;
37847;SDS011;23688;33.130;-117.188;2023-01-05T17:31:54;2.42;;;1.58;;
37847;SDS011;23688;33.130;-117.188;2023-01-05T17:34:21;2.88;;;1.38;;